CheckWX is a tool to help pilots better visualize weather data.  It is not intended as a substitute for an official pre-flight weather briefing.

02:19:26 UTC

KOKC METAR
Will Rogers World Airport
Oklahoma City, Oklahoma, USA
Current

27 mins ago

KOKC 180152Z 34007KT 10SM CLR 01/M06 A3011 RMK AO2 SLP208 T00111056
Observed
Feb-18 @ 01:52 UTC
Wind
  • 340° at 7 KTS
Visibility
10 SM
Flight Rules
VFR
Cloud Levels
  • Clear skies
Temperature
C / 34°F
Dewpoint
-6°C / 21°F
Humidity
60%
Altimeter
30.11" Hg
Pressure
1020.8 hPa
Previous

1 hour ago

KOKC 180052Z 35007KT 10SM FEW180 03/M05 A3007 RMK AO2 SLP192 T00281050
Observed
Feb-18 @ 00:52 UTC
Wind
  • 350° at 7 KTS
Visibility
10 SM
Flight Rules
VFR
Cloud Levels
  • Few at 18,000' AGL
Temperature
C / 37°F
Dewpoint
-5°C / 23°F
Humidity
56%
Altimeter
30.07" Hg
Pressure
1019.2 hPa
Previous

2 hours ago

KOKC 172352Z 01011KT 10SM FEW180 SCT250 05/M05 A3003 RMK AO2 SLP175 T00501050 10083 20044 53019
Observed
Feb-17 @ 23:52 UTC
Wind
  • 010° at 11 KTS
Visibility
10 SM
Flight Rules
VFR
Cloud Levels
  • Few at 18,000' AGL
  • Scattered at 25,000' AGL
Temperature
C / 41°F
Dewpoint
-5°C / 23°F
Humidity
49%
Altimeter
30.03" Hg
Pressure
1017.5 hPa